sensor_id;sensor_type;location;lat;lon;timestamp;P1;durP1;ratioP1;P2;durP2;ratioP2
5987;SDS011;3021;51.000;6.980;2023-06-14T00:00:35;9.02;;;5.45;;
5987;SDS011;3021;51.000;6.980;2023-06-14T00:03:01;8.90;;;5.10;;
5987;SDS011;3021;51.000;6.980;2023-06-14T00:05:28;7.35;;;5.78;;
5987;SDS011;3021;51.000;6.980;2023-06-14T00:07:54;7.50;;;5.68;;
5987;SDS011;3021;51.000;6.980;2023-06-14T00:10:20;7.15;;;5.75;;
5987;SDS011;3021;51.000;6.980;2023-06-14T00:12:45;7.03;;;5.30;;
5987;SDS011;3021;51.000;6.980;2023-06-14T00:15:11;8.70;;;5.47;;
5987;SDS011;3021;51.000;6.980;2023-06-14T00:17:36;10.05;;;5.35;;
5987;SDS011;3021;51.000;6.980;2023-06-14T00:20:04;10.55;;;5.85;;
5987;SDS011;3021;51.000;6.980;2023-06-14T00:22:32;8.80;;;5.28;;
5987;SDS011;3021;51.000;6.980;2023-06-14T00:24:58;7.57;;;5.50;;
5987;SDS011;3021;51.000;6.980;2023-06-14T00:27:23;7.50;;;5.30;;
5987;SDS011;3021;51.000;6.980;2023-06-14T00:29:49;8.95;;;5.90;;
5987;SDS011;3021;51.000;6.980;2023-06-14T00:32:15;7.03;;;5.55;;
5987;SDS011;3021;51.000;6.980;2023-06-14T00:34:40;7.88;;;5.57;;
5987;SDS011;3021;51.000;6.980;2023-06-14T00:37:06;8.13;;;5.47;;
5987;SDS011;3021;51.000;6.980;2023-06-14T00:39:31;7.35;;;5.18;;
5987;SDS011;3021;51.000;6.980;2023-06-14T00:41:56;9.70;;;5.80;;
5987;SDS011;3021;51.000;6.980;2023-06-14T00:44:22;10.07;;;5.50;;
5987;SDS011;3021;51.000;6.980;2023-06-14T00:46:48;7.30;;;5.20;;
5987;SDS011;3021;51.000;6.980;2023-06-14T00:49:14;7.40;;;5.65;;
5987;SDS011;3021;51.000;6.980;2023-06-14T00:51:41;7.97;;;5.15;;
5987;SDS011;3021;51.000;6.980;2023-06-14T00:54:07;10.15;;;5.97;;
5987;SDS011;3021;51.000;6.980;2023-06-14T00:56:33;11.00;;;5.32;;
5987;SDS011;3021;51.000;6.980;2023-06-14T00:59:00;7.40;;;5.00;;
5987;SDS011;3021;51.000;6.980;2023-06-14T01:01:27;9.48;;;5.65;;
5987;SDS011;3021;51.000;6.980;2023-06-14T01:03:53;7.05;;;5.38;;
5987;SDS011;3021;51.000;6.980;2023-06-14T01:12:13;7.25;;;5.80;;
5987;SDS011;3021;51.000;6.980;2023-06-14T01:14:45;11.23;;;6.00;;
5987;SDS011;3021;51.000;6.980;2023-06-14T01:17:13;7.50;;;5.93;;
5987;SDS011;3021;51.000;6.980;2023-06-14T01:19:42;8.82;;;5.80;;
5987;SDS011;3021;51.000;6.980;2023-06-14T01:22:09;7.90;;;5.70;;
5987;SDS011;3021;51.000;6.980;2023-06-14T01:24:35;7.03;;;5.85;;
5987;SDS011;3021;51.000;6.980;2023-06-14T01:27:00;8.27;;;6.00;;
5987;SDS011;3021;51.000;6.980;2023-06-14T01:29:27;7.22;;;6.15;;
5987;SDS011;3021;51.000;6.980;2023-06-14T01:31:57;9.73;;;5.57;;
5987;SDS011;3021;51.000;6.980;2023-06-14T01:34:23;11.07;;;6.70;;
5987;SDS011;3021;51.000;6.980;2023-06-14T01:36:49;8.25;;;6.18;;
5987;SDS011;3021;51.000;6.980;2023-06-14T01:39:15;8.80;;;5.90;;
5987;SDS011;3021;51.000;6.980;2023-06-14T01:41:42;9.45;;;5.88;;
5987;SDS011;3021;51.000;6.980;2023-06-14T01:44:09;8.23;;;6.13;;
5987;SDS011;3021;51.000;6.980;2023-06-14T01:46:35;8.38;;;5.80;;
5987;SDS011;3021;51.000;6.980;2023-06-14T01:49:01;9.70;;;5.70;;
5987;SDS011;3021;51.000;6.980;2023-06-14T01:51:27;8.20;;;5.50;;
5987;SDS011;3021;51.000;6.980;2023-06-14T01:53:52;8.93;;;6.05;;
5987;SDS011;3021;51.000;6.980;2023-06-14T01:56:18;8.90;;;6.55;;
5987;SDS011;3021;51.000;6.980;2023-06-14T01:58:43;6.30;;;5.43;;
5987;SDS011;3021;51.000;6.980;2023-06-14T02:01:08;8.27;;;6.05;;
5987;SDS011;3021;51.000;6.980;2023-06-14T02:03:34;11.77;;;5.95;;
5987;SDS011;3021;51.000;6.980;2023-06-14T02:05:59;8.80;;;5.60;;
5987;SDS011;3021;51.000;6.980;2023-06-14T02:08:25;9.68;;;6.10;;
5987;SDS011;3021;51.000;6.980;2023-06-14T02:10:50;8.70;;;5.45;;
5987;SDS011;3021;51.000;6.980;2023-06-14T02:13:16;9.20;;;6.13;;
5987;SDS011;3021;51.000;6.980;2023-06-14T02:15:41;9.30;;;5.70;;
5987;SDS011;3021;51.000;6.980;2023-06-14T02:18:09;8.45;;;5.45;;
5987;SDS011;3021;51.000;6.980;2023-06-14T02:20:35;8.45;;;5.47;;
5987;SDS011;3021;51.000;6.980;2023-06-14T02:23:00;9.27;;;6.07;;
5987;SDS011;3021;51.000;6.980;2023-06-14T02:25:26;7.72;;;5.82;;
5987;SDS011;3021;51.000;6.980;2023-06-14T02:27:52;10.02;;;5.97;;
5987;SDS011;3021;51.000;6.980;2023-06-14T02:30:18;7.28;;;6.05;;
5987;SDS011;3021;51.000;6.980;2023-06-14T02:32:44;9.95;;;5.85;;
5987;SDS011;3021;51.000;6.980;2023-06-14T02:35:10;7.28;;;5.90;;
5987;SDS011;3021;51.000;6.980;2023-06-14T02:37:35;8.45;;;5.80;;
5987;SDS011;3021;51.000;6.980;2023-06-14T02:40:01;8.43;;;6.00;;
5987;SDS011;3021;51.000;6.980;2023-06-14T02:42:26;7.72;;;5.90;;
5987;SDS011;3021;51.000;6.980;2023-06-14T02:44:51;7.93;;;6.10;;
5987;SDS011;3021;51.000;6.980;2023-06-14T02:47:20;6.60;;;5.75;;
5987;SDS011;3021;51.000;6.980;2023-06-14T02:49:45;9.98;;;6.13;;
5987;SDS011;3021;51.000;6.980;2023-06-14T02:52:13;7.68;;;6.25;;
5987;SDS011;3021;51.000;6.980;2023-06-14T02:54:39;10.70;;;6.40;;
5987;SDS011;3021;51.000;6.980;2023-06-14T02:57:05;6.57;;;4.95;;
5987;SDS011;3021;51.000;6.980;2023-06-14T02:59:32;9.15;;;5.88;;
5987;SDS011;3021;51.000;6.980;2023-06-14T03:01:58;9.15;;;5.80;;
5987;SDS011;3021;51.000;6.980;2023-06-14T03:04:23;8.93;;;5.57;;
5987;SDS011;3021;51.000;6.980;2023-06-14T03:06:50;7.35;;;5.72;;
5987;SDS011;3021;51.000;6.980;2023-06-14T03:09:16;9.73;;;6.10;;
5987;SDS011;3021;51.000;6.980;2023-06-14T03:11:42;9.85;;;5.88;;
5987;SDS011;3021;51.000;6.980;2023-06-14T03:14:07;7.63;;;5.90;;
5987;SDS011;3021;51.000;6.980;2023-06-14T03:16:33;8.45;;;6.15;;
5987;SDS011;3021;51.000;6.980;2023-06-14T03:18:58;8.18;;;6.03;;
5987;SDS011;3021;51.000;6.980;2023-06-14T03:21:24;9.25;;;6.03;;
5987;SDS011;3021;51.000;6.980;2023-06-14T03:23:50;10.95;;;6.43;;
5987;SDS011;3021;51.000;6.980;2023-06-14T03:26:16;9.27;;;6.35;;
5987;SDS011;3021;51.000;6.980;2023-06-14T03:28:44;10.45;;;6.50;;
5987;SDS011;3021;51.000;6.980;2023-06-14T03:31:11;9.68;;;6.63;;
5987;SDS011;3021;51.000;6.980;2023-06-14T03:33:37;8.00;;;6.45;;
5987;SDS011;3021;51.000;6.980;2023-06-14T03:36:02;8.32;;;6.60;;
5987;SDS011;3021;51.000;6.980;2023-06-14T03:38:28;9.48;;;6.53;;
5987;SDS011;3021;51.000;6.980;2023-06-14T03:40:53;7.85;;;6.68;;
5987;SDS011;3021;51.000;6.980;2023-06-14T03:43:18;8.32;;;6.32;;
5987;SDS011;3021;51.000;6.980;2023-06-14T03:45:44;10.75;;;6.70;;
5987;SDS011;3021;51.000;6.980;2023-06-14T03:48:09;9.35;;;5.78;;
5987;SDS011;3021;51.000;6.980;2023-06-14T03:50:35;9.80;;;6.32;;
5987;SDS011;3021;51.000;6.980;2023-06-14T03:53:03;9.45;;;6.50;;
5987;SDS011;3021;51.000;6.980;2023-06-14T03:55:29;9.00;;;6.90;;
5987;SDS011;3021;51.000;6.980;2023-06-14T03:57:56;9.27;;;6.53;;
5987;SDS011;3021;51.000;6.980;2023-06-14T04:00:21;9.23;;;6.60;;
5987;SDS011;3021;51.000;6.980;2023-06-14T04:02:47;7.80;;;6.28;;
5987;SDS011;3021;51.000;6.980;2023-06-14T04:05:12;12.80;;;6.50;;
5987;SDS011;3021;51.000;6.980;2023-06-14T04:07:38;9.50;;;7.22;;
5987;SDS011;3021;51.000;6.980;2023-06-14T04:10:05;9.20;;;6.35;;
5987;SDS011;3021;51.000;6.980;2023-06-14T04:12:32;9.07;;;6.47;;
5987;SDS011;3021;51.000;6.980;2023-06-14T04:14:58;9.68;;;6.55;;
5987;SDS011;3021;51.000;6.980;2023-06-14T04:17:23;10.15;;;6.32;;
5987;SDS011;3021;51.000;6.980;2023-06-14T04:19:48;12.07;;;7.10;;
5987;SDS011;3021;51.000;6.980;2023-06-14T04:22:14;9.80;;;6.28;;
5987;SDS011;3021;51.000;6.980;2023-06-14T04:24:39;7.78;;;5.95;;
5987;SDS011;3021;51.000;6.980;2023-06-14T04:27:07;8.60;;;6.35;;
5987;SDS011;3021;51.000;6.980;2023-06-14T04:29:33;8.85;;;6.05;;
5987;SDS011;3021;51.000;6.980;2023-06-14T04:31:58;10.63;;;6.35;;
5987;SDS011;3021;51.000;6.980;2023-06-14T04:34:25;9.25;;;6.28;;
5987;SDS011;3021;51.000;6.980;2023-06-14T04:36:54;9.05;;;5.93;;
5987;SDS011;3021;51.000;6.980;2023-06-14T04:39:21;10.95;;;5.72;;
5987;SDS011;3021;51.000;6.980;2023-06-14T04:41:47;9.32;;;6.22;;
5987;SDS011;3021;51.000;6.980;2023-06-14T04:44:12;8.63;;;6.20;;
5987;SDS011;3021;51.000;6.980;2023-06-14T04:46:38;9.82;;;6.68;;
5987;SDS011;3021;51.000;6.980;2023-06-14T04:49:17;10.25;;;6.78;;
5987;SDS011;3021;51.000;6.980;2023-06-14T04:51:43;12.20;;;6.70;;
5987;SDS011;3021;51.000;6.980;2023-06-14T04:54:09;11.73;;;7.07;;
5987;SDS011;3021;51.000;6.980;2023-06-14T04:56:39;10.60;;;6.28;;
5987;SDS011;3021;51.000;6.980;2023-06-14T04:59:05;11.48;;;5.57;;
5987;SDS011;3021;51.000;6.980;2023-06-14T05:01:31;9.50;;;5.10;;
5987;SDS011;3021;51.000;6.980;2023-06-14T05:03:57;7.50;;;5.03;;
5987;SDS011;3021;51.000;6.980;2023-06-14T05:06:23;9.50;;;4.93;;
5987;SDS011;3021;51.000;6.980;2023-06-14T05:08:48;7.63;;;4.35;;
5987;SDS011;3021;51.000;6.980;2023-06-14T05:11:14;10.88;;;4.80;;
5987;SDS011;3021;51.000;6.980;2023-06-14T05:13:39;7.18;;;4.40;;
5987;SDS011;3021;51.000;6.980;2023-06-14T05:16:06;6.60;;;4.53;;
5987;SDS011;3021;51.000;6.980;2023-06-14T05:18:31;6.93;;;4.50;;
5987;SDS011;3021;51.000;6.980;2023-06-14T05:20:59;5.70;;;3.97;;
5987;SDS011;3021;51.000;6.980;2023-06-14T05:23:24;4.95;;;3.78;;
5987;SDS011;3021;51.000;6.980;2023-06-14T05:25:50;7.57;;;4.03;;
5987;SDS011;3021;51.000;6.980;2023-06-14T05:28:15;6.53;;;3.95;;
5987;SDS011;3021;51.000;6.980;2023-06-14T05:30:41;4.80;;;4.00;;
5987;SDS011;3021;51.000;6.980;2023-06-14T05:33:07;12.00;;;4.38;;
5987;SDS011;3021;51.000;6.980;2023-06-14T05:35:32;5.72;;;4.05;;
5987;SDS011;3021;51.000;6.980;2023-06-14T05:37:58;5.65;;;3.58;;
5987;SDS011;3021;51.000;6.980;2023-06-14T05:40:24;5.63;;;3.67;;
5987;SDS011;3021;51.000;6.980;2023-06-14T05:42:49;7.78;;;4.15;;
5987;SDS011;3021;51.000;6.980;2023-06-14T05:45:15;6.72;;;3.63;;
5987;SDS011;3021;51.000;6.980;2023-06-14T05:47:41;9.90;;;4.35;;
5987;SDS011;3021;51.000;6.980;2023-06-14T05:50:06;5.30;;;4.03;;
5987;SDS011;3021;51.000;6.980;2023-06-14T05:52:32;4.85;;;3.67;;
5987;SDS011;3021;51.000;6.980;2023-06-14T05:54:58;7.60;;;4.00;;
5987;SDS011;3021;51.000;6.980;2023-06-14T05:57:24;8.73;;;3.85;;
5987;SDS011;3021;51.000;6.980;2023-06-14T05:59:50;4.57;;;3.60;;
5987;SDS011;3021;51.000;6.980;2023-06-14T06:02:16;4.82;;;3.65;;
5987;SDS011;3021;51.000;6.980;2023-06-14T06:04:41;8.80;;;3.63;;
5987;SDS011;3021;51.000;6.980;2023-06-14T06:07:07;4.68;;;3.55;;
5987;SDS011;3021;51.000;6.980;2023-06-14T06:09:32;5.07;;;3.53;;
5987;SDS011;3021;51.000;6.980;2023-06-14T06:11:58;5.35;;;4.00;;
5987;SDS011;3021;51.000;6.980;2023-06-14T06:14:23;9.38;;;3.88;;
5987;SDS011;3021;51.000;6.980;2023-06-14T06:16:48;10.07;;;3.45;;
5987;SDS011;3021;51.000;6.980;2023-06-14T06:19:14;7.40;;;3.63;;
5987;SDS011;3021;51.000;6.980;2023-06-14T06:21:40;6.88;;;4.00;;
5987;SDS011;3021;51.000;6.980;2023-06-14T06:24:05;6.32;;;3.55;;
5987;SDS011;3021;51.000;6.980;2023-06-14T06:26:31;8.63;;;4.25;;
5987;SDS011;3021;51.000;6.980;2023-06-14T06:28:57;4.60;;;3.40;;
5987;SDS011;3021;51.000;6.980;2023-06-14T06:31:23;9.90;;;3.50;;
5987;SDS011;3021;51.000;6.980;2023-06-14T06:33:49;6.25;;;3.45;;
5987;SDS011;3021;51.000;6.980;2023-06-14T06:36:15;6.00;;;3.38;;
5987;SDS011;3021;51.000;6.980;2023-06-14T06:38:41;5.20;;;3.20;;
5987;SDS011;3021;51.000;6.980;2023-06-14T06:41:06;7.85;;;3.58;;
5987;SDS011;3021;51.000;6.980;2023-06-14T06:43:31;5.93;;;3.80;;
5987;SDS011;3021;51.000;6.980;2023-06-14T06:45:57;4.55;;;3.30;;
5987;SDS011;3021;51.000;6.980;2023-06-14T06:48:22;10.07;;;3.20;;
5987;SDS011;3021;51.000;6.980;2023-06-14T06:50:47;5.85;;;2.95;;
5987;SDS011;3021;51.000;6.980;2023-06-14T06:53:13;3.47;;;2.85;;
5987;SDS011;3021;51.000;6.980;2023-06-14T06:55:38;7.22;;;3.20;;
5987;SDS011;3021;51.000;6.980;2023-06-14T06:58:04;5.28;;;3.28;;
5987;SDS011;3021;51.000;6.980;2023-06-14T07:00:30;9.55;;;3.35;;
5987;SDS011;3021;51.000;6.980;2023-06-14T07:02:55;7.93;;;2.90;;
5987;SDS011;3021;51.000;6.980;2023-06-14T07:05:22;4.90;;;3.35;;
5987;SDS011;3021;51.000;6.980;2023-06-14T07:07:47;6.50;;;3.00;;
5987;SDS011;3021;51.000;6.980;2023-06-14T07:10:12;6.80;;;2.83;;
5987;SDS011;3021;51.000;6.980;2023-06-14T07:12:38;3.95;;;3.10;;
5987;SDS011;3021;51.000;6.980;2023-06-14T07:15:05;6.72;;;2.53;;
5987;SDS011;3021;51.000;6.980;2023-06-14T07:17:32;3.83;;;2.70;;
5987;SDS011;3021;51.000;6.980;2023-06-14T07:19:58;3.47;;;2.28;;
5987;SDS011;3021;51.000;6.980;2023-06-14T07:22:23;5.88;;;2.55;;
5987;SDS011;3021;51.000;6.980;2023-06-14T07:24:48;2.45;;;2.25;;
5987;SDS011;3021;51.000;6.980;2023-06-14T07:27:14;2.90;;;2.03;;
5987;SDS011;3021;51.000;6.980;2023-06-14T07:29:39;3.20;;;2.30;;
5987;SDS011;3021;51.000;6.980;2023-06-14T07:32:05;3.55;;;2.60;;
5987;SDS011;3021;51.000;6.980;2023-06-14T07:34:30;6.32;;;2.28;;
5987;SDS011;3021;51.000;6.980;2023-06-14T07:36:56;5.95;;;2.20;;
5987;SDS011;3021;51.000;6.980;2023-06-14T07:39:21;4.72;;;2.00;;
5987;SDS011;3021;51.000;6.980;2023-06-14T07:41:47;2.78;;;2.03;;
5987;SDS011;3021;51.000;6.980;2023-06-14T07:44:12;5.53;;;2.55;;
5987;SDS011;3021;51.000;6.980;2023-06-14T07:46:38;1.92;;;1.75;;
5987;SDS011;3021;51.000;6.980;2023-06-14T07:49:03;2.25;;;1.80;;
5987;SDS011;3021;51.000;6.980;2023-06-14T07:51:30;2.40;;;1.85;;
5987;SDS011;3021;51.000;6.980;2023-06-14T07:53:55;3.03;;;1.85;;
5987;SDS011;3021;51.000;6.980;2023-06-14T07:56:21;5.32;;;1.55;;
5987;SDS011;3021;51.000;6.980;2023-06-14T07:58:46;3.80;;;1.60;;
5987;SDS011;3021;51.000;6.980;2023-06-14T08:01:12;1.98;;;1.73;;
5987;SDS011;3021;51.000;6.980;2023-06-14T08:03:38;2.75;;;1.52;;
5987;SDS011;3021;51.000;6.980;2023-06-14T08:06:03;2.70;;;1.20;;
5987;SDS011;3021;51.000;6.980;2023-06-14T08:08:29;2.88;;;1.42;;
5987;SDS011;3021;51.000;6.980;2023-06-14T08:10:55;4.80;;;1.88;;
5987;SDS011;3021;51.000;6.980;2023-06-14T08:13:20;1.73;;;1.60;;
5987;SDS011;3021;51.000;6.980;2023-06-14T08:15:46;1.58;;;1.48;;
5987;SDS011;3021;51.000;6.980;2023-06-14T08:18:11;4.32;;;1.70;;
5987;SDS011;3021;51.000;6.980;2023-06-14T08:20:37;3.45;;;2.10;;
5987;SDS011;3021;51.000;6.980;2023-06-14T08:23:02;5.72;;;1.90;;
5987;SDS011;3021;51.000;6.980;2023-06-14T08:25:29;4.88;;;1.67;;
5987;SDS011;3021;51.000;6.980;2023-06-14T08:27:55;3.47;;;2.20;;
5987;SDS011;3021;51.000;6.980;2023-06-14T08:30:21;3.85;;;1.88;;
5987;SDS011;3021;51.000;6.980;2023-06-14T08:32:46;3.17;;;1.73;;
5987;SDS011;3021;51.000;6.980;2023-06-14T08:35:12;4.70;;;1.77;;
5987;SDS011;3021;51.000;6.980;2023-06-14T08:37:38;1.70;;;1.45;;
5987;SDS011;3021;51.000;6.980;2023-06-14T08:40:05;2.28;;;1.88;;
5987;SDS011;3021;51.000;6.980;2023-06-14T08:42:42;3.85;;;1.60;;
5987;SDS011;3021;51.000;6.980;2023-06-14T08:45:07;3.67;;;1.73;;
5987;SDS011;3021;51.000;6.980;2023-06-14T08:47:33;3.47;;;1.67;;
5987;SDS011;3021;51.000;6.980;2023-06-14T08:50:02;1.85;;;1.60;;
5987;SDS011;3021;51.000;6.980;2023-06-14T08:52:30;2.15;;;1.45;;
5987;SDS011;3021;51.000;6.980;2023-06-14T08:55:05;4.65;;;1.67;;
5987;SDS011;3021;51.000;6.980;2023-06-14T08:57:33;1.60;;;1.50;;
5987;SDS011;3021;51.000;6.980;2023-06-14T09:00:02;1.63;;;1.52;;
5987;SDS011;3021;51.000;6.980;2023-06-14T09:02:36;2.50;;;1.67;;
5987;SDS011;3021;51.000;6.980;2023-06-14T09:05:02;6.18;;;1.83;;
5987;SDS011;3021;51.000;6.980;2023-06-14T09:07:28;2.30;;;1.67;;
5987;SDS011;3021;51.000;6.980;2023-06-14T09:12:36;2.15;;;1.50;;
5987;SDS011;3021;51.000;6.980;2023-06-14T09:15:02;2.15;;;1.60;;
5987;SDS011;3021;51.000;6.980;2023-06-14T09:17:38;2.55;;;1.67;;
5987;SDS011;3021;51.000;6.980;2023-06-14T09:20:07;2.47;;;1.83;;
5987;SDS011;3021;51.000;6.980;2023-06-14T09:22:35;3.58;;;1.65;;
5987;SDS011;3021;51.000;6.980;2023-06-14T09:25:01;2.25;;;1.33;;
5987;SDS011;3021;51.000;6.980;2023-06-14T09:27:27;1.63;;;1.50;;
5987;SDS011;3021;51.000;6.980;2023-06-14T09:29:53;2.00;;;1.80;;
5987;SDS011;3021;51.000;6.980;2023-06-14T09:32:18;3.03;;;1.80;;
5987;SDS011;3021;51.000;6.980;2023-06-14T09:34:45;2.50;;;1.50;;
5987;SDS011;3021;51.000;6.980;2023-06-14T09:37:10;2.35;;;1.75;;
5987;SDS011;3021;51.000;6.980;2023-06-14T09:39:48;2.20;;;1.75;;
5987;SDS011;3021;51.000;6.980;2023-06-14T09:42:18;3.92;;;1.63;;
5987;SDS011;3021;51.000;6.980;2023-06-14T09:44:48;1.95;;;1.75;;
5987;SDS011;3021;51.000;6.980;2023-06-14T09:47:17;4.25;;;1.83;;
5987;SDS011;3021;51.000;6.980;2023-06-14T09:49:43;2.90;;;1.65;;
5987;SDS011;3021;51.000;6.980;2023-06-14T09:52:14;3.63;;;1.80;;
5987;SDS011;3021;51.000;6.980;2023-06-14T09:54:41;1.70;;;1.60;;
5987;SDS011;3021;51.000;6.980;2023-06-14T09:57:11;1.75;;;1.65;;
5987;SDS011;3021;51.000;6.980;2023-06-14T09:59:37;2.95;;;2.00;;
5987;SDS011;3021;51.000;6.980;2023-06-14T10:02:07;2.20;;;2.00;;
5987;SDS011;3021;51.000;6.980;2023-06-14T10:04:40;3.60;;;1.90;;
5987;SDS011;3021;51.000;6.980;2023-06-14T10:07:11;3.00;;;1.80;;
5987;SDS011;3021;51.000;6.980;2023-06-14T10:09:41;2.67;;;1.90;;
5987;SDS011;3021;51.000;6.980;2023-06-14T10:12:10;2.33;;;1.77;;
5987;SDS011;3021;51.000;6.980;2023-06-14T10:14:36;2.35;;;1.80;;
5987;SDS011;3021;51.000;6.980;2023-06-14T10:19:50;4.90;;;2.13;;
5987;SDS011;3021;51.000;6.980;2023-06-14T10:22:56;3.15;;;1.77;;
5987;SDS011;3021;51.000;6.980;2023-06-14T10:25:27;3.20;;;1.90;;
5987;SDS011;3021;51.000;6.980;2023-06-14T10:30:37;5.15;;;1.80;;
5987;SDS011;3021;51.000;6.980;2023-06-14T10:33:06;10.73;;;2.00;;
5987;SDS011;3021;51.000;6.980;2023-06-14T10:35:32;5.40;;;2.10;;
5987;SDS011;3021;51.000;6.980;2023-06-14T10:38:07;3.80;;;1.92;;
5987;SDS011;3021;51.000;6.980;2023-06-14T10:40:37;2.05;;;1.77;;
5987;SDS011;3021;51.000;6.980;2023-06-14T10:43:22;2.03;;;1.40;;
5987;SDS011;3021;51.000;6.980;2023-06-14T10:48:40;3.15;;;1.80;;
5987;SDS011;3021;51.000;6.980;2023-06-14T10:51:12;1.60;;;1.50;;
5987;SDS011;3021;51.000;6.980;2023-06-14T10:53:45;1.70;;;1.60;;
5987;SDS011;3021;51.000;6.980;2023-06-14T10:56:24;8.68;;;1.80;;
5987;SDS011;3021;51.000;6.980;2023-06-14T10:58:52;2.30;;;1.60;;
5987;SDS011;3021;51.000;6.980;2023-06-14T11:01:23;4.57;;;1.80;;
5987;SDS011;3021;51.000;6.980;2023-06-14T11:03:59;3.40;;;1.60;;
5987;SDS011;3021;51.000;6.980;2023-06-14T11:06:48;2.78;;;1.55;;
5987;SDS011;3021;51.000;6.980;2023-06-14T11:11:44;5.75;;;1.58;;
5987;SDS011;3021;51.000;6.980;2023-06-14T11:14:10;5.88;;;1.70;;
5987;SDS011;3021;51.000;6.980;2023-06-14T11:16:36;3.85;;;1.70;;
5987;SDS011;3021;51.000;6.980;2023-06-14T11:19:02;2.45;;;1.65;;
5987;SDS011;3021;51.000;6.980;2023-06-14T11:21:31;2.47;;;1.98;;
5987;SDS011;3021;51.000;6.980;2023-06-14T11:23:58;1.63;;;1.50;;
5987;SDS011;3021;51.000;6.980;2023-06-14T11:26:28;4.03;;;1.80;;
5987;SDS011;3021;51.000;6.980;2023-06-14T11:28:56;3.50;;;1.80;;
5987;SDS011;3021;51.000;6.980;2023-06-14T11:31:25;1.83;;;1.73;;
5987;SDS011;3021;51.000;6.980;2023-06-14T11:33:54;3.33;;;1.80;;
5987;SDS011;3021;51.000;6.980;2023-06-14T11:36:21;2.22;;;2.00;;
5987;SDS011;3021;51.000;6.980;2023-06-14T11:38:47;3.45;;;1.70;;
5987;SDS011;3021;51.000;6.980;2023-06-14T11:41:13;1.98;;;1.60;;
5987;SDS011;3021;51.000;6.980;2023-06-14T11:43:39;2.10;;;1.58;;
5987;SDS011;3021;51.000;6.980;2023-06-14T11:46:11;2.78;;;1.65;;
5987;SDS011;3021;51.000;6.980;2023-06-14T11:48:40;2.83;;;1.63;;
5987;SDS011;3021;51.000;6.980;2023-06-14T11:51:07;3.80;;;1.58;;
5987;SDS011;3021;51.000;6.980;2023-06-14T11:53:32;1.73;;;1.50;;
5987;SDS011;3021;51.000;6.980;2023-06-14T11:55:58;1.35;;;1.25;;
5987;SDS011;3021;51.000;6.980;2023-06-14T11:58:25;4.95;;;1.75;;
5987;SDS011;3021;51.000;6.980;2023-06-14T12:00:51;4.97;;;1.70;;
5987;SDS011;3021;51.000;6.980;2023-06-14T12:03:17;2.28;;;1.50;;
5987;SDS011;3021;51.000;6.980;2023-06-14T12:05:42;3.65;;;1.50;;
5987;SDS011;3021;51.000;6.980;2023-06-14T12:08:08;1.63;;;1.50;;
5987;SDS011;3021;51.000;6.980;2023-06-14T12:10:40;1.95;;;1.67;;
5987;SDS011;3021;51.000;6.980;2023-06-14T12:13:08;1.80;;;1.63;;
5987;SDS011;3021;51.000;6.980;2023-06-14T12:15:34;1.70;;;1.60;;
5987;SDS011;3021;51.000;6.980;2023-06-14T12:18:00;1.60;;;1.50;;
5987;SDS011;3021;51.000;6.980;2023-06-14T12:20:29;5.50;;;1.90;;
5987;SDS011;3021;51.000;6.980;2023-06-14T12:22:56;3.65;;;1.63;;
5987;SDS011;3021;51.000;6.980;2023-06-14T12:25:24;1.60;;;1.50;;
5987;SDS011;3021;51.000;6.980;2023-06-14T12:27:56;2.95;;;1.40;;
5987;SDS011;3021;51.000;6.980;2023-06-14T12:30:22;2.33;;;1.52;;
5987;SDS011;3021;51.000;6.980;2023-06-14T12:32:48;3.85;;;1.60;;
5987;SDS011;3021;51.000;6.980;2023-06-14T12:35:13;5.53;;;1.45;;
5987;SDS011;3021;51.000;6.980;2023-06-14T12:37:39;1.85;;;1.35;;
5987;SDS011;3021;51.000;6.980;2023-06-14T12:40:05;6.05;;;1.80;;
5987;SDS011;3021;51.000;6.980;2023-06-14T12:42:31;4.57;;;1.45;;
5987;SDS011;3021;51.000;6.980;2023-06-14T12:44:56;3.55;;;1.23;;
5987;SDS011;3021;51.000;6.980;2023-06-14T12:47:22;1.55;;;1.40;;
5987;SDS011;3021;51.000;6.980;2023-06-14T12:49:47;3.55;;;1.50;;
5987;SDS011;3021;51.000;6.980;2023-06-14T12:52:12;5.85;;;1.67;;
5987;SDS011;3021;51.000;6.980;2023-06-14T12:54:38;3.75;;;1.40;;
5987;SDS011;3021;51.000;6.980;2023-06-14T12:57:04;2.08;;;1.50;;
5987;SDS011;3021;51.000;6.980;2023-06-14T12:59:30;3.88;;;1.33;;
5987;SDS011;3021;51.000;6.980;2023-06-14T13:01:59;3.15;;;1.58;;
5987;SDS011;3021;51.000;6.980;2023-06-14T13:04:25;2.55;;;1.60;;
5987;SDS011;3021;51.000;6.980;2023-06-14T13:06:50;3.38;;;1.60;;
5987;SDS011;3021;51.000;6.980;2023-06-14T13:09:16;3.58;;;1.70;;
5987;SDS011;3021;51.000;6.980;2023-06-14T13:11:41;1.48;;;1.33;;
5987;SDS011;3021;51.000;6.980;2023-06-14T13:14:10;2.78;;;1.63;;
5987;SDS011;3021;51.000;6.980;2023-06-14T13:16:36;2.13;;;1.25;;
5987;SDS011;3021;51.000;6.980;2023-06-14T13:19:01;2.97;;;1.48;;
5987;SDS011;3021;51.000;6.980;2023-06-14T13:21:27;1.25;;;1.15;;
5987;SDS011;3021;51.000;6.980;2023-06-14T13:23:52;2.40;;;1.50;;
5987;SDS011;3021;51.000;6.980;2023-06-14T13:26:18;3.88;;;1.67;;
5987;SDS011;3021;51.000;6.980;2023-06-14T13:28:44;1.77;;;1.55;;
5987;SDS011;3021;51.000;6.980;2023-06-14T13:31:09;3.28;;;1.58;;
5987;SDS011;3021;51.000;6.980;2023-06-14T13:33:35;2.55;;;1.50;;
5987;SDS011;3021;51.000;6.980;2023-06-14T13:36:00;4.47;;;1.67;;
5987;SDS011;3021;51.000;6.980;2023-06-14T13:38:25;3.17;;;1.67;;
5987;SDS011;3021;51.000;6.980;2023-06-14T13:40:51;2.13;;;1.38;;
5987;SDS011;3021;51.000;6.980;2023-06-14T13:43:16;3.67;;;1.52;;
5987;SDS011;3021;51.000;6.980;2023-06-14T13:45:41;3.88;;;1.92;;
5987;SDS011;3021;51.000;6.980;2023-06-14T13:48:07;2.00;;;1.52;;
5987;SDS011;3021;51.000;6.980;2023-06-14T13:50:32;2.33;;;1.70;;
5987;SDS011;3021;51.000;6.980;2023-06-14T13:52:58;6.03;;;2.03;;
5987;SDS011;3021;51.000;6.980;2023-06-14T13:55:23;2.42;;;1.80;;
5987;SDS011;3021;51.000;6.980;2023-06-14T13:57:49;4.65;;;1.88;;
5987;SDS011;3021;51.000;6.980;2023-06-14T14:00:14;3.67;;;1.77;;
5987;SDS011;3021;51.000;6.980;2023-06-14T14:02:40;2.25;;;1.67;;
5987;SDS011;3021;51.000;6.980;2023-06-14T14:05:06;2.33;;;1.90;;
5987;SDS011;3021;51.000;6.980;2023-06-14T14:07:31;4.65;;;2.03;;
5987;SDS011;3021;51.000;6.980;2023-06-14T14:09:57;3.53;;;1.90;;
5987;SDS011;3021;51.000;6.980;2023-06-14T14:12:22;6.03;;;2.42;;
5987;SDS011;3021;51.000;6.980;2023-06-14T14:14:48;3.05;;;1.83;;
5987;SDS011;3021;51.000;6.980;2023-06-14T14:17:13;4.15;;;1.92;;
5987;SDS011;3021;51.000;6.980;2023-06-14T14:19:39;2.80;;;1.92;;
5987;SDS011;3021;51.000;6.980;2023-06-14T14:22:04;5.55;;;2.33;;
5987;SDS011;3021;51.000;6.980;2023-06-14T14:24:30;2.72;;;1.88;;
5987;SDS011;3021;51.000;6.980;2023-06-14T14:26:55;4.40;;;1.90;;
5987;SDS011;3021;51.000;6.980;2023-06-14T14:29:24;2.10;;;1.90;;
5987;SDS011;3021;51.000;6.980;2023-06-14T14:31:50;6.57;;;1.95;;
5987;SDS011;3021;51.000;6.980;2023-06-14T14:34:15;4.60;;;2.00;;
5987;SDS011;3021;51.000;6.980;2023-06-14T14:36:40;2.90;;;2.00;;
5987;SDS011;3021;51.000;6.980;2023-06-14T14:39:07;8.23;;;2.20;;
5987;SDS011;3021;51.000;6.980;2023-06-14T14:41:33;4.95;;;2.00;;
5987;SDS011;3021;51.000;6.980;2023-06-14T14:43:58;3.83;;;1.98;;
5987;SDS011;3021;51.000;6.980;2023-06-14T14:46:25;2.47;;;1.88;;
5987;SDS011;3021;51.000;6.980;2023-06-14T14:48:52;2.83;;;1.73;;
5987;SDS011;3021;51.000;6.980;2023-06-14T14:51:17;2.65;;;1.98;;
5987;SDS011;3021;51.000;6.980;2023-06-14T14:53:42;2.80;;;2.00;;
5987;SDS011;3021;51.000;6.980;2023-06-14T14:56:07;2.15;;;1.80;;
5987;SDS011;3021;51.000;6.980;2023-06-14T14:58:33;4.15;;;2.00;;
5987;SDS011;3021;51.000;6.980;2023-06-14T15:00:58;3.97;;;2.10;;
5987;SDS011;3021;51.000;6.980;2023-06-14T15:03:23;2.65;;;2.00;;
5987;SDS011;3021;51.000;6.980;2023-06-14T15:05:49;4.60;;;2.22;;
5987;SDS011;3021;51.000;6.980;2023-06-14T15:08:14;4.93;;;2.38;;
5987;SDS011;3021;51.000;6.980;2023-06-14T15:10:40;3.25;;;1.65;;
5987;SDS011;3021;51.000;6.980;2023-06-14T15:13:06;4.80;;;1.92;;
5987;SDS011;3021;51.000;6.980;2023-06-14T15:15:33;2.75;;;1.88;;
5987;SDS011;3021;51.000;6.980;2023-06-14T15:17:59;4.63;;;2.20;;
5987;SDS011;3021;51.000;6.980;2023-06-14T15:20:25;2.40;;;2.20;;
5987;SDS011;3021;51.000;6.980;2023-06-14T15:22:50;3.40;;;2.03;;
5987;SDS011;3021;51.000;6.980;2023-06-14T15:25:16;4.97;;;2.13;;
5987;SDS011;3021;51.000;6.980;2023-06-14T15:27:41;3.13;;;1.90;;
5987;SDS011;3021;51.000;6.980;2023-06-14T15:30:07;4.93;;;2.20;;